createdAt,value
2018-04-08T00:01:05.634Z,20.60
2018-04-08T00:03:33.372Z,20.20
2018-04-08T00:06:01.046Z,19.73
2018-04-08T00:08:28.796Z,16.63
2018-04-08T00:10:56.451Z,21.10
2018-04-08T00:13:24.115Z,19.67
2018-04-08T00:15:51.801Z,20.27
2018-04-08T00:18:29.579Z,17.03
2018-04-08T00:20:57.242Z,16.27
2018-04-08T00:23:24.915Z,17.67
2018-04-08T00:25:52.506Z,15.97
2018-04-08T00:28:20.903Z,17.67
2018-04-08T00:30:48.637Z,13.53
2018-04-08T00:33:16.238Z,16.87
2018-04-08T00:35:43.944Z,18.10
2018-04-08T00:38:11.683Z,14.60
2018-04-08T00:40:39.505Z,14.83
2018-04-08T00:43:07.929Z,17.63
2018-04-08T00:45:35.577Z,18.80
2018-04-08T00:48:03.261Z,17.57
2018-04-08T00:50:30.895Z,15.47
2018-04-08T00:52:58.578Z,18.70
2018-04-08T00:55:26.236Z,19.70
2018-04-08T00:57:53.924Z,17.93
2018-04-08T01:00:21.564Z,15.40
2018-04-08T01:02:50.360Z,19.50
2018-04-08T01:05:18.070Z,17.07
2018-04-08T01:07:46.534Z,20.13
2018-04-08T01:10:14.175Z,19.40
2018-04-08T01:12:41.842Z,20.80
2018-04-08T01:15:09.410Z,20.00
2018-04-08T01:17:37.068Z,20.10
2018-04-08T01:20:04.704Z,23.23
2018-04-08T01:22:32.322Z,19.83
2018-04-08T01:25:00.232Z,23.13
2018-04-08T01:27:28.680Z,19.77
2018-04-08T01:29:56.287Z,22.70
2018-04-08T01:32:23.950Z,24.87
2018-04-08T01:34:51.618Z,23.37
2018-04-08T01:37:19.322Z,23.13
2018-04-08T01:39:47.790Z,22.93
2018-04-08T01:42:16.206Z,21.67
2018-04-08T01:44:43.916Z,21.00
2018-04-08T01:47:12.543Z,18.73
2018-04-08T01:49:40.229Z,23.33
2018-04-08T01:52:07.836Z,21.53
2018-04-08T01:54:36.246Z,20.70
2018-04-08T01:57:03.881Z,23.33
2018-04-08T01:59:32.220Z,19.70
2018-04-08T02:01:59.912Z,21.57
2018-04-08T02:04:27.658Z,25.33
2018-04-08T02:06:55.402Z,23.70
2018-04-08T02:09:23.087Z,19.20
2018-04-08T02:11:50.693Z,18.27
2018-04-08T02:14:18.363Z,25.07
2018-04-08T02:16:45.981Z,23.23
2018-04-08T02:19:13.616Z,23.97
2018-04-08T02:21:41.207Z,25.00
2018-04-08T02:24:08.859Z,26.30
2018-04-08T02:26:36.483Z,27.03
2018-04-08T02:29:04.083Z,29.20
2018-04-08T02:31:31.731Z,23.83
2018-04-08T02:33:59.433Z,24.40
2018-04-08T02:36:27.834Z,26.70
2018-04-08T02:38:55.559Z,21.57
2018-04-08T02:41:23.238Z,22.63
2018-04-08T02:43:51.647Z,26.27
2018-04-08T02:46:19.287Z,25.90
2018-04-08T02:48:46.936Z,27.10
2018-04-08T02:51:15.407Z,25.27
2018-04-08T02:53:44.345Z,22.93
2018-04-08T02:56:11.972Z,27.90
2018-04-08T02:58:40.427Z,22.60
2018-04-08T03:01:08.045Z,26.77
2018-04-08T03:03:35.721Z,27.20
2018-04-08T03:06:03.355Z,29.30
2018-04-08T03:08:30.984Z,28.30
2018-04-08T03:10:58.614Z,27.43
2018-04-08T03:13:26.236Z,24.13
2018-04-08T03:15:53.958Z,28.13
2018-04-08T03:18:21.612Z,28.00
2018-04-08T03:20:49.264Z,23.03
2018-04-08T03:23:16.914Z,23.17
2018-04-08T03:25:44.582Z,25.00
2018-04-08T03:28:12.980Z,21.07
2018-04-08T03:30:40.645Z,25.20
2018-04-08T03:33:08.312Z,24.40
2018-04-08T03:35:35.973Z,25.27
2018-04-08T03:38:03.812Z,20.37
2018-04-08T03:40:31.436Z,25.97
2018-04-08T03:42:59.116Z,16.30
2018-04-08T03:45:26.670Z,22.87
2018-04-08T03:47:54.354Z,22.27
2018-04-08T03:50:22.057Z,24.17
2018-04-08T03:52:49.705Z,21.60
2018-04-08T03:55:17.361Z,19.37
2018-04-08T03:57:44.950Z,23.27
2018-04-08T04:00:12.660Z,24.10
2018-04-08T04:02:40.381Z,16.13
2018-04-08T04:05:07.994Z,22.23
2018-04-08T04:07:35.653Z,20.07
2018-04-08T04:10:04.022Z,23.43
2018-04-08T04:12:32.429Z,23.23
2018-04-08T04:15:00.039Z,24.67
2018-04-08T04:17:28.433Z,24.30
2018-04-08T04:20:09.752Z,23.03
2018-04-08T04:22:49.040Z,22.47
2018-04-08T04:28:32.429Z,19.07
2018-04-08T04:31:00.077Z,16.40
2018-04-08T04:33:28.632Z,16.90
2018-04-08T04:35:57.125Z,25.50
2018-04-08T04:38:24.827Z,24.60
2018-04-08T04:40:52.477Z,22.57
2018-04-08T04:43:20.123Z,25.33
2018-04-08T04:45:48.385Z,20.57
2018-04-08T04:48:19.330Z,23.80
2018-04-08T04:50:46.995Z,22.87
2018-04-08T04:53:14.637Z,20.30
2018-04-08T04:55:43.059Z,24.73
2018-04-08T04:58:10.685Z,23.43
2018-04-08T05:00:39.108Z,20.07
2018-04-08T05:03:06.711Z,17.60
2018-04-08T05:05:34.325Z,21.30
2018-04-08T05:08:01.956Z,17.63
2018-04-08T05:10:33.031Z,23.13
2018-04-08T05:13:00.681Z,21.67
2018-04-08T05:15:28.257Z,23.37
2018-04-08T05:17:55.879Z,23.67
2018-04-08T05:20:23.493Z,16.67
2018-04-08T05:22:51.067Z,20.90
2018-04-08T05:25:18.668Z,18.07
2018-04-08T05:27:46.304Z,24.67
2018-04-08T05:30:13.897Z,25.80
2018-04-08T05:32:48.147Z,23.00
2018-04-08T05:35:15.771Z,27.17
2018-04-08T05:37:43.446Z,20.23
2018-04-08T05:40:11.034Z,18.53
2018-04-08T05:42:38.705Z,19.77
2018-04-08T05:45:06.339Z,22.97
2018-04-08T05:47:33.992Z,22.93
2018-04-08T05:50:01.634Z,19.87
2018-04-08T05:52:29.246Z,23.70
2018-04-08T05:54:56.888Z,27.37
2018-04-08T05:57:24.498Z,25.80
2018-04-08T05:59:52.889Z,21.60
2018-04-08T06:02:20.550Z,26.07
2018-04-08T06:04:48.169Z,17.77
2018-04-08T06:07:15.783Z,23.07
2018-04-08T06:09:43.425Z,23.93
2018-04-08T06:12:11.819Z,26.00
2018-04-08T06:14:39.481Z,26.33
2018-04-08T06:17:09.181Z,25.87
2018-04-08T06:19:36.845Z,22.70
2018-04-08T06:22:04.473Z,26.00
2018-04-08T06:24:32.047Z,30.77
2018-04-08T06:26:59.691Z,29.93
2018-04-08T06:29:27.302Z,31.90
2018-04-08T06:31:54.911Z,31.23
2018-04-08T06:34:23.335Z,31.27
2018-04-08T06:36:51.014Z,33.03
2018-04-08T06:39:21.815Z,36.33
2018-04-08T06:41:50.197Z,37.73
2018-04-08T06:44:18.584Z,40.30
2018-04-08T06:46:46.197Z,40.43
2018-04-08T06:49:13.835Z,41.53
2018-04-08T06:51:41.469Z,51.03
2018-04-08T06:54:10.019Z,47.30
2018-04-08T06:56:37.654Z,44.73
2018-04-08T06:59:05.302Z,43.13
2018-04-08T07:01:34.778Z,38.80
2018-04-08T07:04:03.186Z,45.53
2018-04-08T07:06:30.771Z,43.50
2018-04-08T07:08:58.380Z,46.43
2018-04-08T07:11:25.977Z,39.40
2018-04-08T07:13:53.612Z,36.57
2018-04-08T07:16:21.263Z,36.47
2018-04-08T07:18:49.608Z,33.93
2018-04-08T07:21:17.230Z,31.73
2018-04-08T07:23:45.314Z,38.70
2018-04-08T07:26:12.918Z,36.63
2018-04-08T07:28:40.567Z,33.90
2018-04-08T07:31:08.183Z,35.33
2018-04-08T07:33:36.570Z,33.10
2018-04-08T07:36:04.162Z,28.33
2018-04-08T07:38:31.805Z,36.93
2018-04-08T07:40:59.452Z,28.83
2018-04-08T07:43:27.035Z,38.87
2018-04-08T07:45:54.874Z,37.83
2018-04-08T07:48:22.528Z,39.93
2018-04-08T07:50:50.152Z,38.70
2018-04-08T07:53:17.839Z,37.00
2018-04-08T07:55:45.432Z,33.90
2018-04-08T07:58:13.085Z,28.90
2018-04-08T08:00:40.757Z,32.90
2018-04-08T08:03:08.395Z,30.63
2018-04-08T08:05:36.051Z,29.63
2018-04-08T08:08:03.844Z,27.17
2018-04-08T08:10:31.531Z,26.87
2018-04-08T08:12:59.194Z,29.47
2018-04-08T08:15:26.836Z,28.67
2018-04-08T08:17:54.555Z,31.23
2018-04-08T08:20:22.281Z,28.97
2018-04-08T08:22:49.997Z,31.07
2018-04-08T08:25:17.797Z,29.10
2018-04-08T08:27:45.493Z,29.93
2018-04-08T08:30:14.261Z,29.80
2018-04-08T08:32:41.991Z,28.93
2018-04-08T08:35:09.807Z,24.77
2018-04-08T08:37:38.501Z,25.53
2018-04-08T08:40:06.314Z,22.37
2018-04-08T08:42:33.984Z,24.07
2018-04-08T08:45:01.699Z,31.90
2018-04-08T08:47:29.447Z,31.03
2018-04-08T08:49:57.988Z,28.10
2018-04-08T08:52:26.710Z,25.90
2018-04-08T08:54:54.605Z,27.80
2018-04-08T08:57:22.254Z,25.60
2018-04-08T08:59:49.965Z,30.80
2018-04-08T09:02:17.642Z,30.47
2018-04-08T09:04:45.797Z,27.43
2018-04-08T09:07:13.527Z,26.17
2018-04-08T09:09:41.186Z,26.70
2018-04-08T09:12:08.932Z,24.37
2018-04-08T09:14:36.589Z,25.60
2018-04-08T09:17:04.320Z,24.53
2018-04-08T09:19:37.462Z,27.43
2018-04-08T09:22:24.754Z,24.23
2018-04-08T09:27:53.980Z,24.90
2018-04-08T09:30:21.674Z,26.43
2018-04-08T09:32:49.369Z,23.67
2018-04-08T09:35:17.012Z,31.57
2018-04-08T09:37:44.729Z,26.33
2018-04-08T09:40:12.395Z,22.13
2018-04-08T09:42:40.076Z,23.23
2018-04-08T09:45:07.715Z,24.23
2018-04-08T09:47:35.509Z,25.77
2018-04-08T09:50:04.001Z,22.90
2018-04-08T09:52:31.754Z,25.23
2018-04-08T09:55:00.211Z,26.10
2018-04-08T09:57:28.360Z,25.43
2018-04-08T09:59:56.037Z,22.03
2018-04-08T10:02:29.337Z,24.60
2018-04-08T10:04:57.794Z,20.50
2018-04-08T10:07:25.459Z,23.60
2018-04-08T10:09:54.083Z,25.87
2018-04-08T10:12:22.476Z,26.23
2018-04-08T10:14:50.123Z,32.10
2018-04-08T10:17:18.692Z,33.63
2018-04-08T10:19:46.346Z,30.53
2018-04-08T10:22:14.023Z,27.07
2018-04-08T10:24:42.447Z,24.00
2018-04-08T10:27:10.162Z,23.73
2018-04-08T10:29:37.971Z,24.07
2018-04-08T10:32:05.803Z,25.40
2018-04-08T10:34:34.252Z,25.53
2018-04-08T10:37:01.975Z,23.83
2018-04-08T10:39:33.603Z,23.37
2018-04-08T10:42:02.193Z,24.73
2018-04-08T10:44:30.870Z,24.80
2018-04-08T10:46:59.351Z,25.00
2018-04-08T10:49:27.127Z,24.40
2018-04-08T10:51:54.806Z,25.63
2018-04-08T10:54:26.340Z,25.80
2018-04-08T10:56:58.620Z,25.13
2018-04-08T10:59:26.317Z,26.30
2018-04-08T11:01:54.916Z,26.60
2018-04-08T11:04:36.494Z,23.83
2018-04-08T11:07:05.618Z,22.50
2018-04-08T11:09:33.378Z,24.13
2018-04-08T11:12:01.965Z,23.33
2018-04-08T11:14:37.814Z,25.13
2018-04-08T11:17:08.503Z,24.73
2018-04-08T11:19:36.805Z,25.70
2018-04-08T11:22:06.348Z,24.67
2018-04-08T11:24:34.920Z,24.30
2018-04-08T11:27:02.638Z,26.03
2018-04-08T11:29:30.596Z,24.77
2018-04-08T11:31:58.620Z,26.00
2018-04-08T11:34:27.698Z,24.50
2018-04-08T11:36:58.936Z,24.27
2018-04-08T11:39:26.625Z,23.40
2018-04-08T11:41:54.916Z,23.37
2018-04-08T11:44:23.128Z,24.60
2018-04-08T11:47:02.203Z,23.43
2018-04-08T11:49:30.884Z,23.70
2018-04-08T11:51:58.563Z,25.37
2018-04-08T11:54:26.224Z,25.00
2018-04-08T11:56:57.140Z,24.60
2018-04-08T11:59:24.798Z,22.20
2018-04-08T12:01:55.121Z,23.83
2018-04-08T12:04:22.946Z,22.40
2018-04-08T12:06:51.301Z,23.27
2018-04-08T12:09:19.029Z,23.50
2018-04-08T12:11:46.720Z,23.83
2018-04-08T12:14:17.117Z,21.47
2018-04-08T12:16:45.568Z,21.50
2018-04-08T12:19:13.348Z,23.03
2018-04-08T12:21:41.031Z,21.97
2018-04-08T12:24:08.691Z,22.42
2018-04-08T12:26:41.882Z,22.57
2018-04-08T12:29:09.585Z,22.10
2018-04-08T12:31:38.227Z,23.83
2018-04-08T12:34:05.866Z,23.50
2018-04-08T12:36:33.530Z,24.00
2018-04-08T12:39:01.203Z,21.70
2018-04-08T12:41:31.157Z,20.60
2018-04-08T12:43:58.777Z,21.07
2018-04-08T12:46:26.455Z,20.93
2018-04-08T12:48:54.116Z,19.73
2018-04-08T12:51:22.655Z,19.27
2018-04-08T12:53:50.445Z,20.40
2018-04-08T12:56:18.097Z,18.93
2018-04-08T12:58:45.726Z,20.30
2018-04-08T13:01:13.376Z,17.90
2018-04-08T13:03:41.187Z,19.10
2018-04-08T13:06:08.822Z,20.13
2018-04-08T13:08:37.282Z,20.37
2018-04-08T13:11:13.060Z,19.83
2018-04-08T13:13:41.562Z,19.40
2018-04-08T13:16:09.232Z,18.93
2018-04-08T13:18:36.862Z,18.47
2018-04-08T13:21:05.266Z,18.97
2018-04-08T13:23:32.955Z,20.20
2018-04-08T13:26:00.644Z,19.73
2018-04-08T13:28:28.356Z,18.53
2018-04-08T13:30:56.063Z,18.90
2018-04-08T13:33:24.272Z,18.97
2018-04-08T13:35:54.812Z,19.83
2018-04-08T13:38:25.133Z,19.03
2018-04-08T13:40:53.550Z,19.10
2018-04-08T13:43:21.236Z,20.00
2018-04-08T13:45:53.302Z,18.37
2018-04-08T13:48:21.875Z,19.67
2018-04-08T13:50:49.514Z,20.50
2018-04-08T13:53:17.219Z,19.83
2018-04-08T13:55:45.602Z,18.90
2018-04-08T14:00:49.740Z,20.10
2018-04-08T14:03:17.409Z,19.97
2018-04-08T14:05:45.122Z,20.63
2018-04-08T14:08:12.765Z,20.30
2018-04-08T14:10:40.574Z,21.07
2018-04-08T14:13:08.254Z,20.57
2018-04-08T14:15:35.983Z,18.60
2018-04-08T14:18:03.628Z,19.80
2018-04-08T14:20:31.537Z,19.03
2018-04-08T14:22:59.205Z,18.97
2018-04-08T14:25:27.415Z,17.53
2018-04-08T14:27:56.763Z,18.27
2018-04-08T14:30:28.390Z,16.93
2018-04-08T14:32:56.182Z,17.30
2018-04-08T14:35:23.826Z,16.63
2018-04-08T14:37:51.539Z,17.00
2018-04-08T14:40:19.206Z,16.53
2018-04-08T14:42:46.941Z,16.77
2018-04-08T14:45:14.641Z,15.73
2018-04-08T14:47:43.128Z,17.07
2018-04-08T14:50:14.288Z,14.83
2018-04-08T14:52:42.055Z,15.50
2018-04-08T14:55:09.718Z,14.97
2018-04-08T14:57:37.369Z,15.23
2018-04-08T15:00:05.039Z,16.10
2018-04-08T15:02:35.491Z,15.37
2018-04-08T15:05:03.172Z,15.53
2018-04-08T15:07:30.901Z,14.97
2018-04-08T15:09:58.638Z,14.67
2018-04-08T15:12:43.664Z,15.27
2018-04-08T15:15:11.320Z,14.47
2018-04-08T15:17:39.025Z,14.40
2018-04-08T15:20:13.375Z,14.80
2018-04-08T15:22:41.067Z,14.20
2018-04-08T15:25:08.728Z,14.73
2018-04-08T15:27:36.379Z,12.73
2018-04-08T15:30:04.107Z,13.57
2018-04-08T15:32:32.481Z,13.83
2018-04-08T15:35:02.996Z,14.90
2018-04-08T15:37:31.126Z,12.50
2018-04-08T15:39:58.859Z,13.13
2018-04-08T15:42:33.129Z,13.13
2018-04-08T15:45:11.012Z,13.60
2018-04-08T15:47:38.604Z,13.17
2018-04-08T15:50:06.274Z,14.18
2018-04-08T15:52:33.964Z,14.97
2018-04-08T15:55:01.606Z,15.70
2018-04-08T15:57:30.032Z,14.60
2018-04-08T15:59:57.709Z,15.77
2018-04-08T16:02:25.524Z,15.87
2018-04-08T16:04:55.027Z,16.37
2018-04-08T16:07:27.987Z,16.53
2018-04-08T16:09:55.655Z,16.83
2018-04-08T16:12:24.094Z,16.97
2018-04-08T16:14:51.802Z,17.20
2018-04-08T16:17:20.813Z,18.73
2018-04-08T16:19:48.481Z,17.50
2018-04-08T16:22:16.957Z,18.80
2018-04-08T16:24:44.627Z,19.37
2018-04-08T16:27:13.057Z,19.40
2018-04-08T16:29:40.917Z,20.33
2018-04-08T16:32:08.610Z,21.10
2018-04-08T16:34:36.312Z,21.30
2018-04-08T16:37:04.097Z,19.87
2018-04-08T16:39:31.839Z,21.10
2018-04-08T16:41:59.570Z,21.23
2018-04-08T16:44:28.013Z,21.07
2018-04-08T16:46:55.746Z,21.43
2018-04-08T16:49:23.402Z,21.90
2018-04-08T16:51:51.175Z,19.77
2018-04-08T16:54:19.610Z,20.60
2018-04-08T16:56:47.353Z,19.77
2018-04-08T16:59:15.105Z,21.40
2018-04-08T17:01:43.043Z,23.47
2018-04-08T17:04:10.764Z,23.47
2018-04-08T17:06:38.425Z,22.77
2018-04-08T17:09:06.099Z,23.37
2018-04-08T17:11:33.793Z,22.57
2018-04-08T17:14:01.504Z,22.37
2018-04-08T17:16:29.142Z,22.97
2018-04-08T17:18:57.534Z,22.47
2018-04-08T17:21:25.208Z,23.43
2018-04-08T17:23:52.877Z,23.33
2018-04-08T17:26:20.495Z,24.17
2018-04-08T17:28:48.137Z,24.27
2018-04-08T17:31:16.569Z,24.57
2018-04-08T17:33:44.242Z,21.90
2018-04-08T17:36:11.885Z,23.47
2018-04-08T17:38:39.478Z,23.73
2018-04-08T17:41:07.100Z,25.60
2018-04-08T17:43:34.792Z,24.50
2018-04-08T17:46:02.429Z,25.83
2018-04-08T17:48:30.036Z,26.20
2018-04-08T17:50:58.476Z,25.43
2018-04-08T17:53:26.135Z,26.57
2018-04-08T17:55:53.786Z,25.93
2018-04-08T17:58:21.480Z,26.73
2018-04-08T18:00:49.163Z,26.10
2018-04-08T18:03:17.632Z,26.00
2018-04-08T18:05:46.134Z,26.53
2018-04-08T18:08:16.623Z,25.20
2018-04-08T18:10:44.286Z,24.50
2018-04-08T18:13:11.936Z,24.80
2018-04-08T18:15:39.567Z,25.60
2018-04-08T18:18:07.255Z,24.97
2018-04-08T18:20:35.696Z,27.30
2018-04-08T18:23:04.146Z,25.30
2018-04-08T18:25:31.891Z,26.80
2018-04-08T18:27:59.577Z,24.20
2018-04-08T18:30:27.311Z,26.57
2018-04-08T18:32:55.011Z,26.33
2018-04-08T18:35:22.699Z,28.03
2018-04-08T18:37:50.475Z,25.53
2018-04-08T18:40:18.130Z,26.30
2018-04-08T18:42:45.753Z,26.40
2018-04-08T18:45:13.439Z,25.97
2018-04-08T18:47:41.023Z,27.93
2018-04-08T18:50:09.520Z,25.30
2018-04-08T18:52:37.195Z,26.63
2018-04-08T18:55:04.857Z,28.17
2018-04-08T18:57:32.478Z,29.03
2018-04-08T19:00:00.077Z,28.33
2018-04-08T19:02:27.701Z,27.80
2018-04-08T19:04:55.302Z,27.73
2018-04-08T19:07:22.955Z,25.70
2018-04-08T19:09:50.635Z,28.27
2018-04-08T19:12:19.425Z,27.97
2018-04-08T19:14:52.739Z,28.87
2018-04-08T19:17:26.071Z,28.63
2018-04-08T19:19:53.762Z,30.70
2018-04-08T19:22:21.418Z,31.30
2018-04-08T19:24:49.028Z,31.30
2018-04-08T19:27:23.181Z,31.07
2018-04-08T19:29:50.799Z,29.27
2018-04-08T19:32:18.434Z,27.77
2018-04-08T19:34:46.896Z,24.80
2018-04-08T19:37:15.307Z,29.63
2018-04-08T19:39:42.968Z,28.83
2018-04-08T19:42:10.629Z,28.38
2018-04-08T19:44:38.311Z,29.77
2018-04-08T19:47:05.977Z,28.60
2018-04-08T19:49:33.584Z,30.43
2018-04-08T19:52:01.938Z,30.23
2018-04-08T19:54:29.838Z,29.83
2018-04-08T19:56:57.503Z,29.67
2018-04-08T19:59:25.136Z,28.53
2018-04-08T20:01:52.801Z,27.87
2018-04-08T20:04:20.511Z,20.80
2018-04-08T20:06:48.150Z,24.80
2018-04-08T20:09:15.822Z,30.47
2018-04-08T20:11:43.513Z,30.47
2018-04-08T20:14:11.973Z,29.53
2018-04-08T20:16:47.614Z,29.90
2018-04-08T20:19:15.317Z,28.60
2018-04-08T20:21:43.748Z,28.33
2018-04-08T20:24:11.422Z,31.33
2018-04-08T20:26:39.096Z,31.27
2018-04-08T20:29:06.851Z,31.57
2018-04-08T20:31:34.458Z,30.93
2018-04-08T20:34:02.064Z,29.53
2018-04-08T20:36:29.687Z,30.07
2018-04-08T20:38:59.426Z,29.00
2018-04-08T20:41:27.062Z,31.03
2018-04-08T20:43:54.667Z,32.77
2018-04-08T20:46:22.318Z,31.77
2018-04-08T20:48:49.985Z,32.37
2018-04-08T20:51:17.619Z,31.23
2018-04-08T20:53:45.295Z,33.63
2018-04-08T20:56:13.701Z,31.70
2018-04-08T20:58:41.364Z,32.93
2018-04-08T21:01:12.073Z,34.10
2018-04-08T21:03:39.709Z,34.50
2018-04-08T21:06:07.383Z,27.83
2018-04-08T21:08:35.039Z,34.00
2018-04-08T21:11:02.705Z,27.90
2018-04-08T21:13:30.349Z,33.20
2018-04-08T21:15:58.743Z,33.10
2018-04-08T21:18:26.450Z,33.20
2018-04-08T21:20:54.120Z,33.57
2018-04-08T21:23:27.775Z,32.93
2018-04-08T21:25:55.465Z,34.27
2018-04-08T21:28:23.135Z,33.80
2018-04-08T21:30:50.800Z,31.83
2018-04-08T21:33:18.477Z,31.77
2018-04-08T21:35:46.134Z,35.17
2018-04-08T21:38:13.771Z,32.73
2018-04-08T21:40:41.399Z,31.60
2018-04-08T21:43:09.036Z,30.13
2018-04-08T21:45:36.745Z,32.40
2018-04-08T21:48:04.440Z,34.63
2018-04-08T21:50:32.864Z,35.37
2018-04-08T21:53:01.265Z,36.30
2018-04-08T21:55:28.903Z,36.20
2018-04-08T21:57:56.519Z,34.17
2018-04-08T22:00:24.150Z,34.67
2018-04-08T22:02:51.808Z,35.50
2018-04-08T22:05:19.458Z,37.77
2018-04-08T22:07:47.268Z,38.60
2018-04-08T22:10:14.913Z,35.23
2018-04-08T22:12:42.559Z,40.13
2018-04-08T22:15:10.226Z,40.37
2018-04-08T22:17:37.888Z,39.73
2018-04-08T22:20:05.557Z,40.07
2018-04-08T22:22:33.209Z,41.07
2018-04-08T22:25:00.882Z,39.63
2018-04-08T22:27:28.496Z,39.73
2018-04-08T22:29:56.170Z,40.80
2018-04-08T22:32:24.574Z,41.17
2018-04-08T22:34:52.203Z,37.47
2018-04-08T22:37:19.915Z,41.47
2018-04-08T22:39:47.519Z,36.67
2018-04-08T22:42:15.204Z,36.80
2018-04-08T22:44:42.857Z,38.23
2018-04-08T22:47:10.483Z,35.30
2018-04-08T22:49:38.151Z,36.03
2018-04-08T22:52:07.003Z,39.70
2018-04-08T22:54:34.665Z,40.93
2018-04-08T22:57:02.298Z,39.20
2018-04-08T22:59:29.963Z,38.07
2018-04-08T23:01:58.405Z,33.70
2018-04-08T23:04:26.036Z,34.83
2018-04-08T23:06:54.431Z,38.60
2018-04-08T23:09:22.137Z,38.40
2018-04-08T23:11:50.609Z,36.40
2018-04-08T23:14:20.279Z,38.33
2018-04-08T23:16:47.943Z,35.77
2018-04-08T23:19:16.383Z,37.70
2018-04-08T23:21:44.777Z,36.80
2018-04-08T23:24:13.133Z,37.40
2018-04-08T23:26:40.925Z,35.87
2018-04-08T23:29:08.547Z,38.47
2018-04-08T23:31:36.196Z,36.47
2018-04-08T23:34:03.865Z,36.20
2018-04-08T23:36:31.786Z,37.87
2018-04-08T23:38:59.537Z,34.60
2018-04-08T23:41:27.177Z,36.37
2018-04-08T23:43:54.832Z,36.73
2018-04-08T23:46:23.291Z,35.80
2018-04-08T23:48:51.715Z,35.33
2018-04-08T23:51:20.152Z,35.87
2018-04-08T23:53:47.815Z,37.00
2018-04-08T23:56:15.494Z,38.17
2018-04-08T23:58:51.364Z,35.87
